Time;durP1;ratioP1;P1;durP2;ratioP2;P2;SDS_P1;SDS_P2;PMS_P1;PMS_P2;Temp;Humidity;BMP_temperature;BMP_pressure;BME280_temperature;BME280_humidity;BME280_pressure;Samples;Min_cycle;Max_cycle;Signal;HPM_P1;HPM_P2
2022/01/06 00:00:22;;;;;;;12.18;7.85;;;;;;;5.42;100.00;98085.41;1703722;83;21093;-80
2022/01/06 00:02:48;;;;;;;12.05;9.50;;;;;;;5.42;100.00;98082.19;1702908;83;21068;-82
2022/01/06 00:05:14;;;;;;;8.15;6.83;;;;;;;5.42;100.00;98072.86;1655341;85;21589;-79
2022/01/06 00:07:40;;;;;;;13.78;10.23;;;;;;;5.45;100.00;98079.03;1673685;85;22229;-78
2022/01/06 00:10:12;;;;;;;9.38;7.25;;;;;;;5.45;100.00;98111.02;1693626;83;21031;-78
2022/01/06 00:12:46;;;;;;;10.58;8.23;;;;;;;5.45;100.00;98109.69;1705573;83;21031;-80
2022/01/06 00:18:08;;;;;;;9.85;7.72;;;;;;;5.40;100.00;98130.98;1679137;84;21145;-78
2022/01/06 00:25:32;;;;;;;7.25;6.40;;;;;;;5.25;100.00;98134.84;1728967;81;21075;-80
2022/01/06 00:28:00;;;;;;;7.45;6.65;;;;;;;5.23;100.00;98133.75;1728945;81;20982;-80
2022/01/06 00:30:28;;;;;;;10.03;7.40;;;;;;;5.21;100.00;98135.89;1701148;83;21745;-79
2022/01/06 00:32:55;;;;;;;10.28;8.08;;;;;;;5.16;100.00;98125.70;1672646;85;21045;-80
2022/01/06 00:35:21;;;;;;;10.78;7.62;;;;;;;5.15;100.00;98132.89;1710690;83;21016;-79
2022/01/06 00:37:48;;;;;;;7.33;6.33;;;;;;;5.15;100.00;98124.89;1713360;83;21505;-75
2022/01/06 00:40:14;;;;;;;6.42;5.28;;;;;;;5.07;100.00;98125.37;1685258;83;21112;-76
2022/01/06 00:42:42;;;;;;;5.42;4.87;;;;;;;5.00;100.00;98134.08;1680518;85;21153;-79
2022/01/06 00:45:09;;;;;;;7.17;6.47;;;;;;;4.95;100.00;98132.69;1680615;85;21112;-73
2022/01/06 00:47:36;;;;;;;5.90;5.25;;;;;;;4.94;100.00;98151.06;1652792;86;21626;-74
2022/01/06 00:50:03;;;;;;;5.95;5.35;;;;;;;4.96;100.00;98153.48;1646283;84;21579;-73
2022/01/06 00:52:30;;;;;;;5.55;4.95;;;;;;;4.90;100.00;98157.95;1663048;85;21923;-73
2022/01/06 00:54:56;;;;;;;5.72;4.87;;;;;;;4.90;100.00;98145.96;1683118;85;21057;-76
2022/01/06 00:57:23;;;;;;;6.37;5.58;;;;;;;4.92;100.00;98141.20;1686837;83;20952;-72
2022/01/06 00:59:49;;;;;;;4.90;4.40;;;;;;;4.93;100.00;98142.01;1724129;82;20884;-73
2022/01/06 01:02:15;;;;;;;5.58;5.08;;;;;;;4.94;100.00;98144.95;1711176;83;20979;-80
2022/01/06 01:04:42;;;;;;;5.47;4.37;;;;;;;4.94;100.00;98140.95;1712137;83;21551;-79
2022/01/06 01:07:09;;;;;;;5.70;5.12;;;;;;;4.91;100.00;98143.58;1711600;83;21532;-79
2022/01/06 01:09:36;;;;;;;5.85;5.28;;;;;;;4.91;100.00;98162.22;1728514;82;20940;-75
2022/01/06 01:12:04;;;;;;;5.30;4.80;;;;;;;4.96;100.00;98162.28;1737541;82;21007;-84
2022/01/06 01:14:43;;;;;;;4.00;3.70;;;;;;;5.03;100.00;98155.43;1723168;81;21050;-81
2022/01/06 01:17:02;;;;;;;4.58;3.87;;;;;;;5.11;100.00;98156.30;1749940;81;21543;-84
2022/01/06 01:19:30;;;;;;;4.47;4.08;;;;;;;5.09;100.00;98156.54;1748151;81;21104;-85
2022/01/06 01:21:57;;;;;;;4.50;4.08;;;;;;;5.08;100.00;98160.28;1746528;81;21038;-83
2022/01/06 01:24:23;;;;;;;4.70;4.28;;;;;;;5.06;100.00;98165.58;1749021;81;21127;-79
2022/01/06 01:26:50;;;;;;;5.10;4.15;;;;;;;5.00;100.00;98150.59;1749263;81;21536;-93
2022/01/06 01:29:18;;;;;;;4.45;4.05;;;;;;;5.04;100.00;98157.82;1741042;82;21071;-86
2022/01/06 01:31:51;;;;;;;4.90;4.10;;;;;;;5.08;100.00;98154.15;1718490;82;21576;-80
2022/01/06 01:34:20;;;;;;;4.10;3.70;;;;;;;5.08;100.00;98156.81;1720347;81;21545;-74
2022/01/06 01:36:44;;;;;;;3.98;3.55;;;;;;;5.12;100.00;98164.05;1717643;82;20982;-76
2022/01/06 01:39:11;;;;;;;4.50;4.10;;;;;;;5.13;100.00;98166.97;1726514;82;21032;-77
2022/01/06 01:41:37;;;;;;;5.62;5.03;;;;;;;5.13;100.00;98171.52;1740823;82;21012;-75
2022/01/06 01:44:11;;;;;;;5.17;4.78;;;;;;;5.10;100.00;98163.48;1720982;81;21126;-80
2022/01/06 01:46:42;;;;;;;3.98;3.58;;;;;;;5.05;100.00;98172.76;1676325;81;21496;-77
2022/01/06 01:49:31;;;;;;;4.15;3.47;;;;;;;4.98;100.00;98162.84;1712854;83;20952;-78
2022/01/06 01:51:45;;;;;;;3.55;3.25;;;;;;;4.95;100.00;98165.19;1761675;81;21035;-80
2022/01/06 01:54:11;;;;;;;4.33;3.58;;;;;;;4.95;100.00;98169.98;1789655;79;21052;-80
2022/01/06 01:56:38;;;;;;;4.47;3.40;;;;;;;4.94;100.00;98158.27;1764945;81;21043;-75
2022/01/06 01:59:05;;;;;;;4.22;3.72;;;;;;;4.96;100.00;98163.61;1764925;79;20976;-72
2022/01/06 02:01:31;;;;;;;4.85;3.30;;;;;;;4.97;100.00;98173.74;1713427;83;21574;-72
2022/01/06 02:03:58;;;;;;;8.40;3.52;;;;;;;4.94;100.00;98183.02;1756462;81;20893;-77
2022/01/06 02:06:25;;;;;;;4.03;3.37;;;;;;;4.90;100.00;98170.45;1752213;81;21004;-76
2022/01/06 02:08:54;;;;;;;3.58;3.25;;;;;;;4.86;100.00;98168.83;1737940;81;21035;-76
2022/01/06 02:11:22;;;;;;;4.20;3.20;;;;;;;4.85;100.00;98169.88;1765065;81;21008;-78
2022/01/06 02:13:55;;;;;;;3.80;3.50;;;;;;;4.86;100.00;98166.16;1743259;79;21053;-78
2022/01/06 02:16:23;;;;;;;3.77;3.47;;;;;;;4.87;100.00;98169.11;1733151;81;21000;-77
2022/01/06 02:18:49;;;;;;;3.95;3.60;;;;;;;4.88;100.00;98154.75;1733067;81;21566;-78
2022/01/06 02:21:16;;;;;;;4.22;3.77;;;;;;;4.88;100.00;98160.08;1764772;81;21520;-77
2022/01/06 02:23:43;;;;;;;5.17;4.28;;;;;;;4.89;100.00;98152.89;1674138;84;20964;-77
2022/01/06 02:26:09;;;;;;;4.22;3.83;;;;;;;4.90;100.00;98157.95;1734671;82;20967;-77
2022/01/06 02:28:37;;;;;;;6.75;4.35;;;;;;;4.92;100.00;98157.70;1668905;85;21019;-78
2022/01/06 02:31:05;;;;;;;5.03;4.10;;;;;;;4.96;100.00;98167.61;1743398;81;22251;-78
2022/01/06 02:33:32;;;;;;;5.10;4.22;;;;;;;5.01;100.00;98178.84;1746718;81;21968;-76
2022/01/06 02:35:58;;;;;;;6.10;5.00;;;;;;;5.04;100.00;98181.80;1732280;81;21048;-80
2022/01/06 02:38:25;;;;;;;8.30;4.25;;;;;;;5.09;100.00;98189.04;1760826;81;21094;-79
2022/01/06 02:40:52;;;;;;;5.33;4.50;;;;;;;5.17;100.00;98197.94;1724172;81;21520;-82
2022/01/06 02:43:20;;;;;;;5.30;4.83;;;;;;;5.24;100.00;98212.66;1659190;84;20976;-82
2022/01/06 02:45:48;;;;;;;5.62;5.03;;;;;;;5.28;100.00;98224.42;1727452;81;21224;-81
2022/01/06 02:48:14;;;;;;;7.10;4.75;;;;;;;5.27;100.00;98218.80;1706519;82;21576;-84
2022/01/06 02:50:44;;;;;;;9.40;6.05;;;;;;;5.23;100.00;98225.70;1715098;83;21005;-85
2022/01/06 02:53:12;;;;;;;5.28;4.60;;;;;;;5.21;100.00;98229.69;1643615;86;21090;-81
2022/01/06 02:55:42;;;;;;;7.03;5.60;;;;;;;5.20;100.00;98222.73;1682591;84;21037;-78
2022/01/06 02:58:08;;;;;;;10.03;7.00;;;;;;;5.18;100.00;98226.97;1687032;83;21127;-78
2022/01/06 03:00:35;;;;;;;7.33;5.60;;;;;;;5.19;100.00;98225.92;1698819;83;20945;-77
2022/01/06 03:03:02;;;;;;;5.87;5.22;;;;;;;5.23;100.00;98233.69;1664343;84;21602;-78
2022/01/06 03:05:28;;;;;;;8.38;6.20;;;;;;;5.25;100.00;98241.45;1668782;85;20973;-79
2022/01/06 03:07:55;;;;;;;6.83;5.05;;;;;;;5.24;100.00;98253.16;1709581;83;21007;-77
2022/01/06 03:10:22;;;;;;;6.70;5.33;;;;;;;5.21;100.00;98251.00;1710655;83;21138;-78
2022/01/06 03:12:49;;;;;;;5.67;4.22;;;;;;;5.19;100.00;98255.24;1693940;83;21114;-75
2022/01/06 03:15:18;;;;;;;6.83;4.08;;;;;;;5.15;100.00;98255.47;1704025;83;21191;-78
2022/01/06 03:17:47;;;;;;;4.85;4.25;;;;;;;5.15;100.00;98255.99;1666697;84;21117;-76
2022/01/06 03:20:15;;;;;;;7.80;3.90;;;;;;;5.16;100.00;98261.08;1701861;82;21053;-80
2022/01/06 03:22:41;;;;;;;7.30;5.70;;;;;;;5.17;100.00;98263.22;1687550;85;21530;-78
2022/01/06 03:25:09;;;;;;;5.00;4.50;;;;;;;5.16;100.00;98250.42;1691976;84;20985;-80
2022/01/06 03:27:35;;;;;;;5.10;3.98;;;;;;;5.18;100.00;98250.96;1702912;83;21072;-80
2022/01/06 03:30:04;;;;;;;4.37;4.00;;;;;;;5.16;100.00;98258.94;1698721;83;21082;-83
2022/01/06 03:32:30;;;;;;;5.33;4.10;;;;;;;5.15;100.00;98259.98;1678107;84;21048;-83
2022/01/06 03:34:58;;;;;;;5.42;4.90;;;;;;;5.14;100.00;98257.05;1703693;84;20901;-80
2022/01/06 03:37:26;;;;;;;5.95;4.40;;;;;;;5.14;100.00;98257.84;1714599;83;20983;-82
2022/01/06 03:39:52;;;;;;;5.42;4.30;;;;;;;5.18;100.00;98250.19;1656206;85;21044;-81
2022/01/06 03:42:18;;;;;;;3.85;3.55;;;;;;;5.22;100.00;98240.10;1703068;82;21056;-80
2022/01/06 03:44:45;;;;;;;5.15;4.65;;;;;;;5.27;100.00;98244.12;1672461;84;21063;-78
2022/01/06 03:47:11;;;;;;;4.00;3.65;;;;;;;5.30;100.00;98242.84;1697450;83;23916;-80
2022/01/06 03:49:38;;;;;;;4.65;4.25;;;;;;;5.33;100.00;98245.52;1706793;84;21315;-79
2022/01/06 03:52:04;;;;;;;4.60;4.20;;;;;;;5.33;100.00;98250.31;1679451;85;20986;-76
2022/01/06 03:54:31;;;;;;;4.92;4.42;;;;;;;5.30;100.00;98244.17;1650649;85;21040;-77
2022/01/06 03:56:58;;;;;;;4.58;4.17;;;;;;;5.26;100.00;98250.53;1687410;83;21039;-78
2022/01/06 03:59:25;;;;;;;6.30;5.12;;;;;;;5.24;100.00;98253.16;1712298;83;21145;-77
2022/01/06 04:01:51;;;;;;;5.50;4.78;;;;;;;5.20;100.00;98251.53;1717381;83;21025;-77
2022/01/06 04:04:18;;;;;;;6.25;5.53;;;;;;;5.16;100.00;98262.94;1717418;83;20977;-77
2022/01/06 04:06:44;;;;;;;5.30;4.80;;;;;;;5.12;100.00;98259.16;1716146;83;21055;-77
2022/01/06 04:09:10;;;;;;;4.67;4.28;;;;;;;5.09;100.00;98267.64;1661865;85;21097;-77
2022/01/06 04:11:37;;;;;;;4.65;4.25;;;;;;;5.09;100.00;98251.66;1720309;82;21093;-77
2022/01/06 04:14:04;;;;;;;6.55;5.62;;;;;;;5.10;100.00;98254.08;1726457;81;20913;-77
2022/01/06 04:16:34;;;;;;;5.40;4.28;;;;;;;5.11;100.00;98262.36;1694264;83;20944;-78
2022/01/06 04:18:58;;;;;;;4.42;4.03;;;;;;;5.16;100.00;98262.41;1675642;84;21549;-78
2022/01/06 04:21:25;;;;;;;5.50;4.65;;;;;;;5.21;100.00;98259.00;1699483;84;21016;-80
2022/01/06 04:23:51;;;;;;;6.28;5.20;;;;;;;5.23;100.00;98260.34;1699517;84;21613;-76
2022/01/06 04:26:18;;;;;;;7.35;5.85;;;;;;;5.26;100.00;98261.20;1652582;84;20996;-79
2022/01/06 04:28:44;;;;;;;5.00;3.87;;;;;;;5.30;100.00;98263.35;1680240;85;21618;-78
2022/01/06 04:31:10;;;;;;;4.80;4.35;;;;;;;5.31;100.00;98275.10;1652709;86;21049;-79
2022/01/06 04:33:37;;;;;;;4.83;4.20;;;;;;;5.32;100.00;98271.91;1662764;86;21108;-80
2022/01/06 04:36:04;;;;;;;4.78;4.25;;;;;;;5.31;100.00;98280.95;1662882;85;21533;-79
2022/01/06 04:38:31;;;;;;;5.10;4.28;;;;;;;5.35;100.00;98294.06;1655908;86;21046;-78
2022/01/06 04:40:58;;;;;;;4.87;4.37;;;;;;;5.35;100.00;98323.38;1662586;85;21057;-78
2022/01/06 04:43:24;;;;;;;5.17;4.37;;;;;;;5.34;100.00;98313.24;1680676;85;21065;-77
2022/01/06 04:45:50;;;;;;;4.37;3.98;;;;;;;5.31;100.00;98307.61;1663594;85;21612;-77
2022/01/06 04:48:16;;;;;;;5.42;4.45;;;;;;;5.28;100.00;98304.91;1642321;85;21548;-77
2022/01/06 04:50:43;;;;;;;5.00;4.05;;;;;;;5.29;100.00;98307.85;1680480;85;20945;-79
2022/01/06 04:53:09;;;;;;;4.85;4.45;;;;;;;5.31;100.00;98304.95;1682133;85;21008;-78
2022/01/06 04:55:36;;;;;;;4.37;3.98;;;;;;;5.32;100.00;98304.70;1710503;83;21072;-77
2022/01/06 04:58:02;;;;;;;7.25;5.05;;;;;;;5.38;100.00;98311.69;1627605;86;21056;-80
2022/01/06 05:00:28;;;;;;;4.47;4.08;;;;;;;5.43;100.00;98312.27;1743392;81;21042;-78
2022/01/06 05:02:55;;;;;;;4.47;4.07;;;;;;;5.43;100.00;98309.07;1710784;83;21004;-78
2022/01/06 05:05:21;;;;;;;4.70;4.20;;;;;;;5.40;99.41;98302.92;1710678;83;21021;-75
2022/01/06 05:07:47;;;;;;;4.60;4.20;;;;;;;5.37;99.31;98298.63;1680742;83;21055;-78
2022/01/06 05:10:14;;;;;;;3.90;3.60;;;;;;;5.35;99.37;98306.86;1703646;84;21046;-78
2022/01/06 05:12:43;;;;;;;4.37;3.98;;;;;;;5.35;99.23;98300.72;1762140;81;21516;-78
2022/01/06 05:15:10;;;;;;;5.50;3.85;;;;;;;5.32;99.04;98302.05;1761040;81;21536;-77
2022/01/06 05:17:37;;;;;;;4.78;4.10;;;;;;;5.30;98.98;98300.66;1741515;79;20992;-74
2022/01/06 05:20:04;;;;;;;5.45;4.80;;;;;;;5.31;99.04;98304.42;1772018;79;21530;-76
2022/01/06 05:22:31;;;;;;;6.40;4.92;;;;;;;5.30;98.88;98313.99;1770354;81;21010;-76
2022/01/06 05:24:58;;;;;;;5.37;4.08;;;;;;;5.26;98.79;98313.17;1694638;84;21051;-77
2022/01/06 05:27:24;;;;;;;5.08;4.03;;;;;;;5.24;98.78;98323.26;1697157;83;21044;-77
2022/01/06 05:29:51;;;;;;;6.78;5.60;;;;;;;5.23;98.76;98336.30;1710588;83;21063;-79
2022/01/06 05:32:17;;;;;;;8.28;5.83;;;;;;;5.22;98.83;98327.24;1697448;84;21556;-79
2022/01/06 05:34:43;;;;;;;5.90;5.33;;;;;;;5.23;98.87;98334.16;1710674;83;20984;-81
2022/01/06 05:37:10;;;;;;;6.25;5.65;;;;;;;5.21;98.94;98341.09;1696529;83;21081;-78
2022/01/06 05:39:38;;;;;;;6.90;5.75;;;;;;;5.22;99.00;98348.56;1699672;84;21587;-80
2022/01/06 05:42:04;;;;;;;6.80;5.25;;;;;;;5.20;98.93;98355.46;1710519;83;21052;-78
2022/01/06 05:44:34;;;;;;;5.42;4.92;;;;;;;5.20;98.94;98362.66;1710505;82;21068;-77
2022/01/06 05:47:00;;;;;;;6.15;5.22;;;;;;;5.19;98.80;98354.37;1709695;83;21024;-78
2022/01/06 05:49:27;;;;;;;8.20;5.50;;;;;;;5.18;98.83;98358.11;1672079;85;21091;-78
2022/01/06 05:51:53;;;;;;;6.40;5.78;;;;;;;5.19;98.79;98353.84;1701499;83;21051;-80
2022/01/06 05:54:19;;;;;;;4.90;4.28;;;;;;;5.19;98.63;98360.51;1710674;83;21549;-79
2022/01/06 05:56:46;;;;;;;5.03;4.62;;;;;;;5.17;98.47;98371.96;1695977;83;21092;-75
2022/01/06 05:59:12;;;;;;;5.45;4.55;;;;;;;5.19;98.49;98373.02;1664882;85;21083;-73
2022/01/06 06:01:38;;;;;;;7.12;6.00;;;;;;;5.19;98.37;98374.36;1662625;85;21095;-76
2022/01/06 06:04:05;;;;;;;6.17;5.15;;;;;;;5.18;98.31;98380.20;1710421;82;21016;-76
2022/01/06 06:06:33;;;;;;;6.20;5.40;;;;;;;5.18;98.23;98376.77;1706604;83;21043;-76
2022/01/06 06:08:59;;;;;;;5.47;4.95;;;;;;;5.18;98.09;98398.08;1687667;84;21545;-77
2022/01/06 06:11:25;;;;;;;6.28;5.65;;;;;;;5.18;97.81;98390.09;1718855;81;20994;-77
2022/01/06 06:13:52;;;;;;;6.30;5.40;;;;;;;5.20;97.75;98386.63;1762203;81;21145;-75
2022/01/06 06:16:18;;;;;;;5.22;4.65;;;;;;;5.22;97.63;98392.53;1754890;81;21608;-78
2022/01/06 06:18:45;;;;;;;5.55;5.05;;;;;;;5.24;97.48;98395.75;1755362;81;21053;-78
2022/01/06 06:21:12;;;;;;;5.05;4.53;;;;;;;5.24;97.27;98407.22;1762172;81;21036;-77
2022/01/06 06:23:38;;;;;;;8.15;5.37;;;;;;;5.24;96.98;98403.73;1762221;81;21076;-77
2022/01/06 06:26:04;;;;;;;6.40;5.80;;;;;;;5.26;97.01;98409.64;1760412;81;21490;-78
2022/01/06 06:28:31;;;;;;;6.20;5.67;;;;;;;5.30;97.01;98410.76;1755499;81;21024;-75
2022/01/06 06:30:58;;;;;;;5.47;4.75;;;;;;;5.32;96.65;98402.00;1744413;81;21056;-73
2022/01/06 06:33:24;;;;;;;8.43;6.97;;;;;;;5.33;96.33;98404.92;1762531;81;21050;-88
2022/01/06 06:35:51;;;;;;;7.87;6.17;;;;;;;5.36;96.29;98404.97;1741370;81;21298;-86
2022/01/06 06:38:18;;;;;;;5.42;4.87;;;;;;;5.37;96.09;98422.58;1752282;81;21288;-84
2022/01/06 06:40:44;;;;;;;7.45;5.37;;;;;;;5.39;95.66;98427.12;1754945;81;21038;-86
2022/01/06 06:43:12;;;;;;;6.00;5.30;;;;;;;5.41;95.46;98433.03;1737031;82;21052;-87
2022/01/06 06:45:40;;;;;;;6.53;5.90;;;;;;;5.43;95.05;98436.23;1751274;81;21068;-85
2022/01/06 06:48:09;;;;;;;6.33;5.75;;;;;;;5.41;94.57;98441.02;1741156;81;21043;-88
2022/01/06 06:50:36;;;;;;;5.33;4.50;;;;;;;5.36;93.65;98443.10;1748304;82;21611;-87
2022/01/06 06:53:02;;;;;;;4.92;4.42;;;;;;;5.33;93.32;98444.09;1738272;82;21014;-87
2022/01/06 06:55:31;;;;;;;5.80;4.85;;;;;;;5.31;93.16;98435.56;1749113;80;21037;-84
2022/01/06 06:57:57;;;;;;;6.62;5.95;;;;;;;5.30;92.94;98442.75;1749626;81;21009;-89
2022/01/06 07:00:23;;;;;;;6.22;5.22;;;;;;;5.31;92.89;98449.70;1749258;81;21033;-89
2022/01/06 07:02:50;;;;;;;5.33;4.80;;;;;;;5.31;92.70;98448.36;1682328;83;21164;-87
2022/01/06 07:05:16;;;;;;;5.78;5.17;;;;;;;5.32;92.61;98451.31;1663129;86;21034;-88
2022/01/06 07:07:44;;;;;;;6.08;5.12;;;;;;;5.31;92.29;98456.36;1628932;86;21040;-88
2022/01/06 07:10:11;;;;;;;6.47;5.03;;;;;;;5.27;91.98;98455.24;1672923;84;21073;-86
2022/01/06 07:12:44;;;;;;;4.90;4.10;;;;;;;5.25;91.79;98467.47;1710648;83;21063;-88
2022/01/06 07:15:14;;;;;;;7.03;3.67;;;;;;;5.26;91.79;98458.95;1710665;83;21151;-87
2022/01/06 07:17:41;;;;;;;5.55;4.70;;;;;;;5.28;91.67;98469.64;1686720;83;21066;-86
2022/01/06 07:20:09;;;;;;;4.53;4.10;;;;;;;5.28;91.52;98496.81;1720841;83;21000;-85
2022/01/06 07:22:36;;;;;;;5.42;4.60;;;;;;;5.27;91.11;98488.01;1683777;83;21074;-87
2022/01/06 07:25:05;;;;;;;4.87;4.22;;;;;;;5.26;90.99;98488.27;1677293;84;21000;-85
2022/01/06 07:27:33;;;;;;;5.67;4.67;;;;;;;5.23;91.04;98496.73;1680236;85;21109;-86
2022/01/06 07:29:59;;;;;;;6.58;3.80;;;;;;;5.17;91.57;98523.86;1687054;84;20993;-81
2022/01/06 07:32:27;;;;;;;4.45;3.30;;;;;;;5.07;90.44;98511.71;1701744;83;21046;-79
2022/01/06 07:34:56;;;;;;;4.83;3.12;;;;;;;4.95;89.92;98526.95;1680595;85;21095;-79
2022/01/06 07:37:24;;;;;;;4.58;3.20;;;;;;;4.81;89.31;98501.69;1680637;85;21567;-79
2022/01/06 07:39:50;;;;;;;6.30;2.77;;;;;;;4.67;89.18;98512.38;1680635;83;21732;-77
2022/01/06 07:42:16;;;;;;;3.52;2.60;;;;;;;4.56;88.96;98510.05;1720655;83;20944;-78
2022/01/06 07:44:46;;;;;;;2.58;2.22;;;;;;;4.43;88.65;98491.72;1692407;84;21073;-78
2022/01/06 07:47:12;;;;;;;3.05;2.30;;;;;;;4.36;88.95;98511.05;1679704;83;21061;-79
2022/01/06 07:49:38;;;;;;;3.25;2.70;;;;;;;4.30;89.07;98497.35;1716345;82;21044;-78
2022/01/06 07:52:10;;;;;;;4.30;3.00;;;;;;;4.25;89.20;98503.39;1741908;82;21142;-90
2022/01/06 07:54:37;;;;;;;2.85;2.65;;;;;;;4.19;89.26;98491.03;1677180;85;21118;-86
2022/01/06 07:57:04;;;;;;;2.30;2.08;;;;;;;4.15;89.42;98511.18;1723017;82;20936;-82
2022/01/06 07:59:30;;;;;;;3.15;2.08;;;;;;;4.05;89.28;98505.66;1617868;87;21075;-86
2022/01/06 08:01:56;;;;;;;3.85;2.60;;;;;;;3.99;89.46;98513.25;1671920;85;21044;-86
2022/01/06 08:04:23;;;;;;;2.95;2.50;;;;;;;3.95;89.69;98511.59;1671735;85;22115;-87
2022/01/06 08:06:49;;;;;;;3.70;2.00;;;;;;;3.95;89.90;98518.75;1652780;85;21020;-85
2022/01/06 08:09:16;;;;;;;5.20;2.67;;;;;;;3.95;89.71;98538.19;1631445;86;21008;-85
2022/01/06 08:11:43;;;;;;;4.92;2.67;;;;;;;3.91;89.58;98534.91;1690368;84;21079;-87
2022/01/06 08:14:11;;;;;;;3.12;2.15;;;;;;;3.88;89.68;98538.05;1659933;85;21059;-87
2022/01/06 08:16:38;;;;;;;3.75;2.22;;;;;;;3.83;89.56;98532.63;1703752;82;21947;-85
2022/01/06 08:19:04;;;;;;;3.00;2.50;;;;;;;3.81;89.74;98543.48;1740927;82;20997;-78
2022/01/06 08:21:31;;;;;;;5.92;2.37;;;;;;;3.79;89.86;98546.88;1713833;82;21009;-86
2022/01/06 08:23:57;;;;;;;4.78;2.22;;;;;;;3.76;89.79;98547.88;1715352;81;21069;-81
2022/01/06 08:26:24;;;;;;;4.60;4.08;;;;;;;3.76;89.79;98547.88;1728511;82;21521;-82
2022/01/06 08:28:52;;;;;;;3.17;2.62;;;;;;;3.73;89.92;98539.86;1714525;82;21837;-81
2022/01/06 08:31:20;;;;;;;6.92;2.40;;;;;;;3.71;89.97;98534.47;1702141;83;21034;-80
2022/01/06 08:33:47;;;;;;;3.52;2.87;;;;;;;3.69;89.96;98539.23;1686634;84;21747;-85
2022/01/06 08:36:16;;;;;;;5.37;2.35;;;;;;;3.70;90.17;98534.18;1671771;85;21000;-81
2022/01/06 08:38:43;;;;;;;6.25;2.72;;;;;;;3.71;90.32;98533.95;1639243;87;21182;-86
2022/01/06 08:41:09;;;;;;;2.58;2.37;;;;;;;3.73;90.23;98545.18;1675647;85;21053;-83
2022/01/06 08:43:36;;;;;;;6.60;3.00;;;;;;;3.73;90.13;98550.50;1673148;85;21096;-88
2022/01/06 08:46:02;;;;;;;5.33;2.60;;;;;;;3.72;89.65;98565.34;1673461;84;21004;-88
2022/01/06 11:54:18;;;;;;;7.65;3.92;;;;;;;4.38;68.78;98633.52;1707729;82;21534;-83
2022/01/06 11:56:50;;;;;;;5.50;3.77;;;;;;;4.39;68.93;98627.15;1704591;83;21039;-78
2022/01/06 11:59:33;;;;;;;7.53;4.45;;;;;;;4.43;68.69;98634.66;1760844;79;21078;-82
2022/01/06 12:02:00;;;;;;;5.28;3.12;;;;;;;4.45;68.35;98639.23;1717863;81;21019;-80
2022/01/06 12:04:28;;;;;;;7.20;4.20;;;;;;;4.41;68.05;98640.23;1760066;81;21013;-80
2022/01/06 12:07:05;;;;;;;6.62;4.35;;;;;;;4.38;68.20;98640.17;1755614;81;21025;-81
2022/01/06 12:09:31;;;;;;;3.75;2.87;;;;;;;4.41;68.35;98633.58;1729789;81;21072;-82
2022/01/06 12:12:06;;;;;;;7.55;3.87;;;;;;;4.41;68.35;98633.58;1728243;81;21059;-82
2022/01/06 12:14:36;;;;;;;6.05;4.42;;;;;;;4.42;68.35;98633.84;1713871;81;20985;-83
2022/01/06 12:17:10;;;;;;;5.35;4.10;;;;;;;4.39;68.06;98632.99;1739722;81;21048;-81
2022/01/06 12:19:37;;;;;;;6.47;3.80;;;;;;;4.37;68.23;98633.73;1741044;81;21052;-79
2022/01/06 12:22:14;;;;;;;9.48;4.45;;;;;;;4.38;68.34;98642.83;1706207;83;21022;-83
2022/01/06 12:24:45;;;;;;;5.17;3.72;;;;;;;4.37;68.15;98648.38;1680765;84;39161;-87
2022/01/06 12:27:20;;;;;;;4.35;2.87;;;;;;;4.36;67.86;98646.78;1785844;80;20973;-86
2022/01/06 12:29:47;;;;;;;5.25;3.75;;;;;;;4.38;68.08;98661.46;1744911;81;21036;-84
2022/01/06 12:32:14;;;;;;;5.53;4.30;;;;;;;4.36;67.99;98644.91;1737657;81;21120;-80
2022/01/06 12:34:45;;;;;;;5.12;3.87;;;;;;;4.38;68.16;98655.33;1704711;83;20996;-81
2022/01/06 12:37:28;;;;;;;5.42;4.37;;;;;;;4.39;68.13;98652.95;1702162;82;21553;-89
2022/01/06 12:39:57;;;;;;;7.83;4.25;;;;;;;4.41;68.05;98654.88;1747079;81;21048;-89
2022/01/06 12:42:23;;;;;;;7.08;5.20;;;;;;;4.39;68.00;98653.77;1751466;81;21091;-84
2022/01/06 12:44:51;;;;;;;9.78;5.75;;;;;;;4.41;67.94;98659.39;1760385;81;21598;-89
2022/01/06 12:47:17;;;;;;;6.47;4.37;;;;;;;4.39;68.14;98665.75;1744843;81;21311;-88
2022/01/06 12:49:45;;;;;;;8.45;4.92;;;;;;;4.42;68.20;98662.31;1708932;81;21034;-81
2022/01/06 12:52:15;;;;;;;7.85;4.75;;;;;;;4.41;67.98;98662.86;1745306;81;21047;-83
2022/01/06 12:54:43;;;;;;;7.00;5.30;;;;;;;4.41;68.04;98654.88;1741990;81;20952;-79
2022/01/06 12:57:11;;;;;;;8.35;5.40;;;;;;;4.40;67.97;98657.24;1734771;80;21012;-74
2022/01/06 12:59:39;;;;;;;8.20;5.65;;;;;;;4.37;68.07;98663.83;1753148;81;21040;-73
2022/01/06 13:02:12;;;;;;;6.65;5.58;;;;;;;4.38;68.27;98668.11;1767302;79;21068;-80
2022/01/06 13:04:44;;;;;;;6.37;4.87;;;;;;;4.39;68.34;98671.07;1738932;81;20995;-82
2022/01/06 13:07:13;;;;;;;5.78;4.47;;;;;;;4.42;68.43;98667.63;1736423;81;21023;-78
2022/01/06 13:09:42;;;;;;;10.78;5.70;;;;;;;4.42;68.49;98659.13;1757757;81;21513;-84
2022/01/06 13:12:13;;;;;;;7.08;4.62;;;;;;;4.39;68.44;98660.42;1770152;81;21140;-80
2022/01/06 13:14:48;;;;;;;6.70;5.58;;;;;;;4.40;68.76;98663.90;1710545;82;21494;-84
2022/01/06 13:17:29;;;;;;;9.78;5.03;;;;;;;4.42;69.16;98667.63;1743175;81;21279;-82
2022/01/06 13:20:15;;;;;;;10.63;6.28;;;;;;;4.41;68.95;98668.70;1753605;81;21023;-85
2022/01/06 13:23:01;;;;;;;6.47;5.03;;;;;;;4.42;68.95;98678.28;1739315;82;21052;-87
2022/01/06 13:25:27;;;;;;;8.00;6.55;;;;;;;4.44;69.06;98675.69;1757023;81;21018;-86
2022/01/06 13:28:18;;;;;;;13.93;8.28;;;;;;;4.41;68.84;98676.17;1760444;81;21144;-84
2022/01/06 13:30:55;;;;;;;7.45;6.25;;;;;;;4.38;69.17;98664.12;1759830;80;21544;-88
2022/01/06 13:33:29;;;;;;;19.25;8.20;;;;;;;4.39;69.33;98660.94;1738829;81;21038;-76
2022/01/06 13:35:57;;;;;;;12.90;6.45;;;;;;;4.37;69.00;98660.36;1716882;82;21546;-85
2022/01/06 13:38:30;;;;;;;8.90;6.65;;;;;;;4.30;69.06;98669.00;1743612;81;21067;-82
2022/01/06 13:41:02;;;;;;;8.43;7.42;;;;;;;4.27;69.28;98676.11;1770877;81;21315;-85
2022/01/06 13:43:35;;;;;;;16.25;6.67;;;;;;;4.28;69.53;98685.20;1771734;81;21573;-87
2022/01/06 13:46:22;;;;;;;8.83;6.62;;;;;;;4.31;69.55;98679.42;1770849;81;21028;-82
2022/01/06 13:48:48;;;;;;;8.63;6.10;;;;;;;4.31;69.50;98676.77;1771780;81;20909;-87
2022/01/06 13:51:18;;;;;;;10.23;6.78;;;;;;;4.30;69.61;98679.66;1772263;79;21463;-88
2022/01/06 13:53:53;;;;;;;9.43;7.90;;;;;;;4.27;69.54;98684.09;1770917;80;21145;-84
2022/01/06 13:56:30;;;;;;;8.80;6.95;;;;;;;4.25;69.82;98683.53;1718100;81;20987;-83
2022/01/06 13:58:56;;;;;;;11.40;7.47;;;;;;;4.27;69.87;98690.23;1769949;80;21125;-79
2022/01/06 14:01:33;;;;;;;10.93;7.30;;;;;;;4.28;69.99;98688.38;1770304;81;21510;-91
2022/01/06 14:04:07;;;;;;;11.65;8.93;;;;;;;4.27;69.85;98694.22;1767629;81;21007;-90
2022/01/06 14:06:38;;;;;;;11.28;7.40;;;;;;;4.28;70.05;98703.02;1759049;81;21157;-81
2022/01/06 14:09:16;;;;;;;11.53;8.50;;;;;;;4.28;70.08;98706.48;1756502;80;20988;-87
2022/01/06 14:11:57;;;;;;;10.95;6.87;;;;;;;4.29;70.07;98715.28;1717362;81;21504;-88
2022/01/06 14:14:25;;;;;;;11.38;7.58;;;;;;;4.29;70.13;98721.42;1682990;81;21036;-83
2022/01/06 14:16:53;;;;;;;12.65;8.10;;;;;;;4.27;70.03;98718.69;1770099;81;21548;-85
2022/01/06 14:19:19;;;;;;;14.40;8.98;;;;;;;4.22;70.07;98718.61;1770190;81;21897;-85
2022/01/06 14:21:45;;;;;;;11.57;7.90;;;;;;;4.22;70.33;98722.05;1717519;81;21020;-86
2022/01/06 14:24:11;;;;;;;10.68;8.13;;;;;;;4.21;70.13;98712.47;1770033;80;21071;-77
2022/01/06 14:26:43;;;;;;;13.60;9.25;;;;;;;4.18;70.28;98710.77;1753356;81;21055;-79
2022/01/06 14:29:10;;;;;;;16.35;10.08;;;;;;;4.16;70.40;98714.20;1726939;82;21063;-84
2022/01/06 14:31:42;;;;;;;14.05;8.85;;;;;;;4.18;70.48;98718.75;1726456;83;22072;-88
2022/01/06 14:34:10;;;;;;;15.05;8.78;;;;;;;4.17;70.40;98719.82;1699582;83;21066;-83
2022/01/06 14:36:38;;;;;;;18.20;11.40;;;;;;;4.15;70.47;98724.03;1726343;83;20934;-79
2022/01/06 14:39:04;;;;;;;20.17;11.97;;;;;;;4.12;70.50;98724.52;1726078;83;21083;-75
2022/01/06 14:41:33;;;;;;;15.40;10.88;;;;;;;4.10;70.67;98731.91;1697829;83;21038;-78
2022/01/06 14:43:59;;;;;;;23.20;12.58;;;;;;;4.09;70.88;98730.27;1726375;82;21837;-80
2022/01/06 14:46:26;;;;;;;21.30;12.20;;;;;;;4.10;70.88;98727.09;1726090;83;20970;-81
2022/01/06 14:48:52;;;;;;;16.55;10.93;;;;;;;4.10;70.88;98736.41;1697734;83;21070;-79
2022/01/06 14:51:24;;;;;;;15.75;10.58;;;;;;;4.07;70.83;98731.56;1674607;83;21015;-81
2022/01/06 14:53:55;;;;;;;33.15;18.77;;;;;;;4.09;70.98;98746.75;1739470;81;21071;-84